Time;durP1;ratioP1;P1;durP2;ratioP2;P2;SDS_P1;SDS_P2;PMS_P1;PMS_P2;Temp;Humidity;BMP_temperature;BMP_pressure;BME280_temperature;BME280_humidity;BME280_pressure;Samples;Min_cycle;Max_cycle;Signal;HPM_P1;HPM_P2
2023/10/07 00:02:16;;;;;;;5.75;3.65;;;15.90;99.90;;;;;;5066282;27;20039;-42
2023/10/07 00:04:42;;;;;;;6.43;3.40;;;15.90;99.90;;;;;;5064000;27;20025;-42
2023/10/07 00:07:11;;;;;;;5.85;3.13;;;15.90;99.90;;;;;;5058034;27;20561;-43
2023/10/07 00:09:41;;;;;;;4.70;3.30;;;15.90;99.90;;;;;;5068486;27;20039;-43
2023/10/07 00:15:04;;;;;;;5.10;3.30;;;15.90;99.90;;;;;;5073292;27;20090;-43
2023/10/07 00:17:29;;;;;;;5.07;3.05;;;15.90;99.90;;;;;;5072986;27;20055;-43
2023/10/07 00:19:55;;;;;;;6.45;3.05;;;15.90;99.90;;;;;;5070062;27;20155;-43
2023/10/07 00:22:20;;;;;;;5.05;2.95;;;15.90;99.90;;;;;;5084204;27;20047;-43
2023/10/07 00:24:52;;;;;;;5.13;2.95;;;16.00;99.90;;;;;;5076829;27;20033;-42
2023/10/07 00:27:27;;;;;;;4.25;2.85;;;16.00;99.90;;;;;;5066905;27;20029;-43
2023/10/07 00:29:59;;;;;;;5.82;3.83;;;16.00;99.90;;;;;;5057391;27;20067;-43
2023/10/07 00:32:34;;;;;;;6.18;3.70;;;16.10;99.90;;;;;;5063286;27;20067;-43
2023/10/07 00:35:00;;;;;;;6.63;3.65;;;16.10;99.90;;;;;;5068123;27;20058;-43
2023/10/07 00:37:26;;;;;;;4.97;3.20;;;16.00;99.90;;;;;;5066986;27;20054;-43
2023/10/07 00:39:53;;;;;;;7.40;3.05;;;16.10;99.90;;;;;;5071730;27;20073;-43
2023/10/07 00:42:19;;;;;;;4.93;3.40;;;16.10;99.90;;;;;;5077885;27;20029;-43
2023/10/07 00:44:52;;;;;;;3.67;2.65;;;16.00;99.90;;;;;;5057862;28;20057;-43
2023/10/07 00:47:19;;;;;;;4.88;3.00;;;16.00;99.90;;;;;;5065481;27;20035;-42
2023/10/07 00:52:27;;;;;;;4.97;2.92;;;16.00;99.90;;;;;;5090182;27;20366;-42
2023/10/07 00:55:08;;;;;;;4.78;2.90;;;16.00;99.90;;;;;;5058600;28;20024;-43
2023/10/07 01:02:50;;;;;;;5.85;3.50;;;16.00;99.90;;;;;;5085629;27;20041;-43
2023/10/07 01:05:26;;;;;;;6.25;3.75;;;16.00;99.90;;;;;;5056744;28;20032;-42
2023/10/07 01:07:58;;;;;;;5.40;3.22;;;15.90;99.90;;;;;;5082576;27;20051;-42
2023/10/07 01:10:31;;;;;;;8.15;3.38;;;16.00;99.90;;;;;;5055695;27;20060;-43
2023/10/07 01:13:03;;;;;;;8.63;3.20;;;16.00;99.90;;;;;;5063270;27;20040;-44
2023/10/07 01:15:30;;;;;;;6.28;3.08;;;16.00;99.90;;;;;;5056376;28;20038;-42
2023/10/07 01:18:03;;;;;;;6.10;2.92;;;15.90;99.90;;;;;;5087896;27;20111;-42
2023/10/07 01:20:48;;;;;;;5.22;2.80;;;16.00;99.90;;;;;;5055886;28;20056;-43
2023/10/07 01:23:22;;;;;;;4.68;3.67;;;16.00;99.90;;;;;;5070253;27;20397;-43
2023/10/07 01:25:50;;;;;;;6.93;3.35;;;15.90;99.90;;;;;;5056188;28;20020;-42
2023/10/07 01:28:16;;;;;;;5.20;3.30;;;15.90;99.90;;;;;;5072242;27;20178;-42
2023/10/07 01:31:07;;;;;;;4.22;3.50;;;15.90;99.90;;;;;;5067620;27;20017;-42
2023/10/07 01:33:39;;;;;;;5.57;3.75;;;15.90;99.90;;;;;;5080301;27;20095;-42
2023/10/07 01:36:24;;;;;;;;;;;15.80;99.90;;;;;;5061062;27;20021;-43
2023/10/07 01:38:54;;;;;;;9.15;4.80;;;15.80;99.90;;;;;;5062734;27;19927;-41
2023/10/07 01:41:22;;;;;;;6.05;3.78;;;15.80;99.90;;;;;;5054755;28;20124;-42
2023/10/07 01:44:00;;;;;;;7.68;4.28;;;15.80;99.90;;;;;;5089177;27;20493;-43
2023/10/07 01:46:29;;;;;;;5.63;4.25;;;15.80;99.90;;;;;;5060186;28;20032;-42
2023/10/07 01:49:06;;;;;;;6.25;3.45;;;15.80;99.90;;;;;;5063643;27;20448;-42
2023/10/07 01:51:32;;;;;;;5.82;4.10;;;15.80;99.90;;;;;;5052216;28;20103;-42
2023/10/07 01:54:03;;;;;;;6.13;4.53;;;15.80;99.90;;;;;;5079052;27;20043;-43
2023/10/07 01:56:32;;;;;;;5.20;3.80;;;15.90;99.90;;;;;;5063438;27;20089;-43
2023/10/07 01:59:21;;;;;;;7.53;3.95;;;15.90;99.90;;;;;;5080281;27;20399;-43
2023/10/07 02:01:51;;;;;;;6.45;3.90;;;16.00;99.90;;;;;;5064721;27;20036;-43
2023/10/07 02:04:18;;;;;;;5.15;4.10;;;16.00;99.90;;;;;;5065339;27;20037;-41
2023/10/07 02:06:51;;;;;;;6.20;4.25;;;16.00;99.90;;;;;;5056646;27;20041;-42
2023/10/07 02:09:27;;;;;;;6.93;3.88;;;16.00;99.90;;;;;;5070145;27;20036;-43
2023/10/07 02:11:57;;;;;;;7.55;4.97;;;16.00;99.90;;;;;;5057684;27;20120;-43
2023/10/07 02:14:29;;;;;;;6.47;4.28;;;16.10;99.90;;;;;;5067119;27;20032;-44
2023/10/07 02:16:56;;;;;;;6.80;4.78;;;16.10;99.90;;;;;;5060854;27;20044;-42
2023/10/07 02:19:29;;;;;;;8.07;5.00;;;16.10;99.90;;;;;;5075364;27;20047;-42
2023/10/07 02:22:08;;;;;;;7.93;5.55;;;16.10;99.90;;;;;;5066468;27;20048;-43
2023/10/07 02:24:35;;;;;;;5.63;4.15;;;16.10;99.90;;;;;;5078169;27;20032;-43
2023/10/07 02:27:06;;;;;;;6.57;4.65;;;16.20;99.90;;;;;;5060625;27;20024;-44
2023/10/07 02:29:34;;;;;;;8.77;5.25;;;16.10;99.90;;;;;;5059166;27;20692;-43
2023/10/07 02:32:12;;;;;;;8.13;5.28;;;16.20;99.90;;;;;;5058396;27;20105;-42
2023/10/07 02:34:51;;;;;;;8.07;4.50;;;16.20;99.90;;;;;;5064845;27;20118;-43
2023/10/07 02:37:38;;;;;;;6.20;4.55;;;16.20;99.90;;;;;;5063070;27;20629;-43
2023/10/07 02:40:22;;;;;;;8.55;4.55;;;16.20;99.90;;;;;;5070220;27;20398;-43
2023/10/07 02:42:50;;;;;;;6.95;4.30;;;16.30;99.90;;;;;;5057592;27;20124;-43
2023/10/07 02:47:51;;;;;;;8.38;5.07;;;16.30;99.90;;;;;;5071715;27;20032;-43
2023/10/07 02:50:17;;;;;;;7.18;4.68;;;16.20;99.90;;;;;;5068213;27;20457;-43
2023/10/07 02:52:46;;;;;;;9.20;5.38;;;16.30;99.90;;;;;;5064952;27;20028;-42
2023/10/07 02:57:55;;;;;;;6.97;5.07;;;16.30;99.90;;;;;;5056703;27;20093;-43
2023/10/07 03:00:36;;;;;;;7.70;4.70;;;16.30;99.90;;;;;;5064883;27;20052;-43
2023/10/07 03:03:19;;;;;;;7.87;5.30;;;16.30;99.90;;;;;;5079379;27;20068;-43
2023/10/07 03:05:45;;;;;;;7.88;4.53;;;16.30;99.90;;;;;;5091779;27;20740;-43
2023/10/07 03:08:19;;;;;;;6.80;4.38;;;16.30;99.90;;;;;;5063562;27;20562;-43
2023/10/07 03:11:03;;;;;;;8.15;5.38;;;16.30;99.90;;;;;;5082428;27;20122;-43
2023/10/07 03:13:49;;;;;;;8.82;5.43;;;16.30;99.90;;;;;;5073683;27;20055;-42
2023/10/07 03:19:20;;;;;;;7.53;5.55;;;16.30;99.90;;;;;;5056659;27;20809;-43
2023/10/07 03:24:10;;;;;;;10.45;5.90;;;16.30;99.90;;;;;;5059026;27;20090;-43
2023/10/07 03:26:37;;;;;;;9.77;6.35;;;16.40;99.90;;;;;;5077715;27;20375;-43
2023/10/07 03:29:06;;;;;;;8.05;6.20;;;16.30;99.90;;;;;;5071070;27;20027;-43
2023/10/07 03:31:47;;;;;;;13.48;6.70;;;16.30;99.90;;;;;;5077062;27;20029;-43
2023/10/07 03:34:13;;;;;;;9.02;6.05;;;16.40;99.90;;;;;;5062228;27;20080;-42
2023/10/07 03:37:14;;;;;;;8.55;6.22;;;16.40;99.90;;;;;;5064411;27;20029;-42
2023/10/07 03:42:15;;;;;;;9.52;6.32;;;16.40;99.90;;;;;;5066298;27;20128;-43
2023/10/07 03:44:49;;;;;;;12.73;7.78;;;16.40;99.90;;;;;;5068692;27;20131;-43
2023/10/07 03:47:17;;;;;;;10.00;6.45;;;16.40;99.90;;;;;;5069299;27;20036;-42
2023/10/07 03:49:52;;;;;;;10.85;6.22;;;16.40;99.90;;;;;;5056240;27;20034;-43
2023/10/07 03:52:20;;;;;;;11.88;6.13;;;16.50;99.90;;;;;;5075338;27;20468;-42
2023/10/07 03:54:47;;;;;;;9.00;5.78;;;16.40;99.90;;;;;;5065854;27;20033;-43
2023/10/07 03:57:15;;;;;;;10.13;6.03;;;16.50;99.90;;;;;;5075203;27;20024;-43
2023/10/07 03:59:41;;;;;;;10.27;6.78;;;16.50;99.90;;;;;;5064875;27;20040;-43
2023/10/07 04:05:09;;;;;;;9.38;6.72;;;16.50;99.90;;;;;;5063669;27;20055;-43
2023/10/07 04:07:43;;;;;;;14.27;8.07;;;16.50;99.90;;;;;;5075857;27;20024;-43
2023/10/07 04:13:01;;;;;;;9.77;6.10;;;16.50;99.90;;;;;;5063930;27;20835;-44
2023/10/07 04:15:34;;;;;;;10.07;6.10;;;16.50;99.90;;;;;;5058539;27;20029;-43
2023/10/07 04:18:00;;;;;;;7.90;5.13;;;16.50;99.90;;;;;;5080331;27;20036;-43
2023/10/07 04:20:42;;;;;;;9.43;6.35;;;16.60;99.90;;;;;;5072573;27;20055;-43
2023/10/07 04:23:08;;;;;;;10.80;5.88;;;16.60;99.90;;;;;;5069031;27;20641;-44
2023/10/07 04:25:43;;;;;;;11.80;7.55;;;16.60;99.90;;;;;;5060572;27;20032;-44
2023/10/07 04:28:13;;;;;;;8.30;6.28;;;16.60;99.90;;;;;;5063357;27;20116;-42
2023/10/07 04:30:47;;;;;;;10.07;6.40;;;16.70;99.90;;;;;;5061218;27;20020;-43
2023/10/07 04:33:17;;;;;;;11.52;7.50;;;16.70;99.90;;;;;;5064631;27;20028;-44
2023/10/07 04:35:49;;;;;;;14.30;7.95;;;16.70;99.90;;;;;;5073302;27;20033;-43
2023/10/07 04:38:39;;;;;;;13.07;7.23;;;16.70;99.90;;;;;;5058122;27;20059;-44
2023/10/07 04:41:30;;;;;;;8.93;6.15;;;16.70;99.90;;;;;;5069660;27;20048;-43
2023/10/07 04:43:59;;;;;;;11.02;6.85;;;16.70;99.90;;;;;;5074677;27;20034;-43
2023/10/07 04:46:28;;;;;;;9.68;6.13;;;16.70;99.90;;;;;;5073725;27;20498;-43
2023/10/07 04:48:56;;;;;;;10.18;6.68;;;16.70;99.90;;;;;;5067151;27;20739;-43
2023/10/07 04:53:59;;;;;;;11.68;6.95;;;16.70;99.90;;;;;;5069144;27;20036;-42
2023/10/07 04:56:26;;;;;;;10.73;5.97;;;16.70;99.90;;;;;;5070374;27;20111;-42
2023/10/07 04:58:53;;;;;;;11.07;6.30;;;16.70;99.90;;;;;;5062826;27;20674;-44
2023/10/07 05:01:22;;;;;;;10.10;6.25;;;16.70;99.90;;;;;;5074997;27;20021;-44
2023/10/07 05:03:55;;;;;;;9.45;5.30;;;16.70;99.90;;;;;;5059093;27;20659;-43
2023/10/07 05:06:22;;;;;;;9.35;6.10;;;16.80;99.90;;;;;;5069625;27;20074;-42
2023/10/07 05:08:48;;;;;;;8.77;5.80;;;16.80;99.90;;;;;;5057663;27;20486;-43
2023/10/07 05:11:17;;;;;;;12.48;6.47;;;16.80;99.90;;;;;;5062585;27;20030;-43
2023/10/07 05:13:49;;;;;;;8.80;6.20;;;16.80;99.90;;;;;;5057387;27;20123;-43
2023/10/07 05:16:15;;;;;;;8.82;5.80;;;16.80;99.90;;;;;;5091430;27;20041;-43
2023/10/07 05:18:42;;;;;;;8.73;6.60;;;16.90;99.90;;;;;;5055966;27;20041;-43
2023/10/07 05:21:08;;;;;;;11.43;6.15;;;16.90;99.90;;;;;;5077491;27;20033;-44
2023/10/07 05:23:41;;;;;;;9.38;5.85;;;16.90;99.90;;;;;;5058556;27;20025;-43
2023/10/07 05:26:10;;;;;;;10.95;6.20;;;16.90;99.90;;;;;;5072602;27;20139;-44
2023/10/07 05:28:36;;;;;;;12.10;6.75;;;16.90;99.90;;;;;;5068801;27;21392;-42
2023/10/07 05:31:03;;;;;;;7.72;5.72;;;16.90;99.90;;;;;;5085772;27;20111;-44
2023/10/07 05:33:32;;;;;;;10.82;6.55;;;16.80;99.90;;;;;;5056184;27;20056;-43
2023/10/07 05:36:13;;;;;;;9.60;5.63;;;16.80;99.90;;;;;;5057974;27;20032;-43
2023/10/07 05:38:44;;;;;;;12.17;6.73;;;16.80;99.90;;;;;;5070088;27;20036;-43
2023/10/07 05:41:14;;;;;;;11.75;6.43;;;16.80;99.90;;;;;;5072008;27;20020;-42
2023/10/07 05:43:48;;;;;;;9.52;7.20;;;16.70;99.90;;;;;;5064540;27;20468;-43
2023/10/07 05:46:17;;;;;;;11.55;7.47;;;16.70;99.90;;;;;;5070440;27;20025;-44
2023/10/07 05:48:43;;;;;;;10.13;6.68;;;16.70;99.90;;;;;;5055352;27;20126;-43
2023/10/07 05:51:09;;;;;;;9.23;7.07;;;16.70;99.90;;;;;;5089845;27;20086;-43
2023/10/07 05:53:40;;;;;;;9.20;6.93;;;16.70;99.90;;;;;;5070388;27;20107;-42
2023/10/07 05:56:09;;;;;;;9.02;6.78;;;16.60;99.90;;;;;;5069148;27;20017;-46
2023/10/07 05:58:35;;;;;;;7.97;6.28;;;16.70;99.90;;;;;;5063209;27;20052;-43
2023/10/07 06:01:11;;;;;;;8.68;6.88;;;16.70;99.90;;;;;;5064584;27;20472;-43
2023/10/07 06:03:40;;;;;;;8.85;6.30;;;16.70;99.90;;;;;;5055065;27;20028;-43
2023/10/07 06:06:09;;;;;;;9.82;7.47;;;16.70;99.90;;;;;;5052037;27;20073;-42
2023/10/07 06:08:34;;;;;;;10.77;6.82;;;16.70;99.90;;;;;;5064163;27;20032;-43
2023/10/07 06:11:01;;;;;;;8.77;6.22;;;16.70;99.90;;;;;;5064537;27;20024;-44
2023/10/07 06:13:28;;;;;;;7.30;5.65;;;16.70;99.90;;;;;;5097553;27;20025;-43
2023/10/07 06:15:55;;;;;;;8.98;6.53;;;16.70;99.90;;;;;;5058527;27;20048;-43
2023/10/07 06:18:27;;;;;;;8.63;6.03;;;16.70;99.90;;;;;;5060350;27;20941;-44
2023/10/07 06:20:53;;;;;;;9.00;6.13;;;16.80;99.90;;;;;;5056273;28;20025;-42
2023/10/07 06:23:25;;;;;;;9.50;6.82;;;16.80;99.90;;;;;;5080473;27;20524;-43
2023/10/07 06:25:52;;;;;;;10.53;7.20;;;16.80;99.90;;;;;;5051078;28;20028;-43
2023/10/07 06:31:01;;;;;;;11.32;7.40;;;16.90;99.90;;;;;;5057354;28;20040;-43
2023/10/07 06:33:42;;;;;;;11.23;6.95;;;16.90;99.90;;;;;;5110985;27;20056;-43
2023/10/07 06:36:10;;;;;;;9.50;6.80;;;16.90;99.90;;;;;;5058090;28;20084;-43
2023/10/07 06:38:45;;;;;;;11.25;7.82;;;16.90;99.90;;;;;;5103797;27;20039;-44
2023/10/07 06:41:12;;;;;;;12.63;7.15;;;17.00;99.90;;;;;;5166563;27;20038;-44
2023/10/07 06:43:49;;;;;;;10.57;6.32;;;17.00;99.90;;;;;;5099731;27;20064;-43
2023/10/07 06:46:20;;;;;;;9.43;6.30;;;17.10;99.90;;;;;;5163125;27;20555;-43
2023/10/07 06:48:49;;;;;;;10.52;7.15;;;17.10;99.90;;;;;;5113201;27;20081;-42
2023/10/07 06:51:15;;;;;;;10.70;6.28;;;17.20;99.90;;;;;;5155031;27;20018;-43
2023/10/07 06:53:44;;;;;;;13.18;6.97;;;17.20;99.90;;;;;;5110351;27;20027;-43
2023/10/07 06:56:22;;;;;;;11.82;6.88;;;17.30;99.90;;;;;;5161435;27;20040;-44
2023/10/07 06:58:54;;;;;;;10.20;7.55;;;17.30;99.90;;;;;;5125662;27;20479;-43
2023/10/07 07:01:51;;;;;;;11.02;6.45;;;17.40;99.90;;;;;;5087406;27;20056;-43
2023/10/07 07:04:19;;;;;;;13.30;8.20;;;17.50;99.90;;;;;;5113134;27;20037;-44
2023/10/07 07:06:57;;;;;;;10.32;7.18;;;17.50;99.90;;;;;;5071571;27;20650;-43
2023/10/07 07:12:09;;;;;;;16.33;9.30;;;17.60;99.90;;;;;;5161761;27;20029;-44
2023/10/07 07:14:42;;;;;;;10.90;7.82;;;17.60;99.90;;;;;;5067542;27;20052;-44
2023/10/07 07:20:19;;;;;;;11.60;7.47;;;17.60;99.90;;;;;;5075149;27;19923;-44
2023/10/07 07:22:42;;;;;;;12.73;7.57;;;17.60;99.90;;;;;;5053268;28;20476;-44
2023/10/07 07:25:10;;;;;;;10.40;7.03;;;17.60;99.90;;;;;;5065822;27;20020;-43
2023/10/07 07:27:37;;;;;;;14.15;8.07;;;17.70;99.90;;;;;;5087718;27;20029;-44
2023/10/07 07:30:04;;;;;;;11.85;7.50;;;17.70;99.90;;;;;;5097431;27;20018;-43
2023/10/07 07:32:33;;;;;;;12.13;7.30;;;17.60;99.90;;;;;;5061771;27;20051;-43
2023/10/07 07:35:03;;;;;;;10.50;7.35;;;17.70;99.90;;;;;;5062107;27;20052;-44
2023/10/07 07:37:31;;;;;;;10.80;6.95;;;17.70;99.90;;;;;;5064525;27;20020;-43
2023/10/07 07:40:09;;;;;;;12.10;6.32;;;17.70;99.90;;;;;;5073200;27;20066;-45
2023/10/07 07:42:38;;;;;;;10.70;6.43;;;17.70;99.90;;;;;;5066989;27;20104;-44
2023/10/07 07:45:15;;;;;;;8.90;5.75;;;17.80;99.90;;;;;;5070168;27;20139;-44
2023/10/07 07:47:41;;;;;;;8.90;5.50;;;17.80;99.90;;;;;;5057325;27;20840;-44
2023/10/07 07:50:08;;;;;;;8.50;5.43;;;17.90;99.90;;;;;;5091995;27;20174;-44
2023/10/07 07:52:34;;;;;;;8.80;6.07;;;17.90;99.90;;;;;;5162950;27;20022;-44
2023/10/07 07:54:59;;;;;;;10.32;5.75;;;17.90;99.90;;;;;;5159467;27;20362;-45
2023/10/07 07:57:25;;;;;;;9.50;5.30;;;17.90;99.90;;;;;;5053105;28;20031;-43
2023/10/07 07:59:51;;;;;;;9.15;5.57;;;17.90;99.90;;;;;;5070044;27;20096;-43
2023/10/07 08:02:17;;;;;;;9.15;5.25;;;17.90;99.90;;;;;;5083415;27;20035;-43
2023/10/07 08:07:39;;;;;;;10.80;6.10;;;17.90;99.90;;;;;;5063398;27;20571;-44
2023/10/07 08:10:10;;;;;;;6.80;5.10;;;17.90;99.90;;;;;;5060929;27;20080;-44
2023/10/07 08:12:36;;;;;;;8.40;6.15;;;17.90;99.90;;;;;;5071798;27;20027;-44
2023/10/07 08:17:37;;;;;;;7.70;6.07;;;17.90;99.90;;;;;;5055437;27;20064;-43
2023/10/07 08:20:13;;;;;;;9.35;5.88;;;17.90;99.90;;;;;;5057731;27;20144;-43
2023/10/07 08:22:51;;;;;;;11.85;5.95;;;18.00;99.90;;;;;;5083739;27;20030;-44
2023/10/07 08:28:19;;;;;;;11.38;7.28;;;18.10;99.90;;;;;;5133662;27;20040;-43
2023/10/07 08:30:48;;;;;;;10.77;7.72;;;18.20;99.90;;;;;;5067831;27;20032;-43
2023/10/07 08:33:15;;;;;;;10.43;6.75;;;18.30;99.90;;;;;;5119008;27;20416;-44
2023/10/07 08:35:48;;;;;;;13.48;7.40;;;18.30;99.90;;;;;;5060503;27;20032;-44
2023/10/07 08:38:37;;;;;;;10.43;6.72;;;18.40;99.90;;;;;;5102111;27;20433;-43
2023/10/07 08:41:04;;;;;;;8.63;6.05;;;18.50;99.90;;;;;;5049128;27;20042;-44
2023/10/07 08:44:03;;;;;;;11.15;7.43;;;18.60;99.90;;;;;;5117651;27;20044;-43
2023/10/07 08:46:32;;;;;;;9.25;6.13;;;18.60;99.90;;;;;;5068852;27;20030;-44
2023/10/07 08:49:06;;;;;;;9.23;6.03;;;18.70;99.90;;;;;;5121636;27;20511;-44
2023/10/07 08:51:40;;;;;;;9.85;6.60;;;18.80;99.90;;;;;;5068921;27;20037;-44
2023/10/07 08:54:11;;;;;;;9.55;6.43;;;18.80;99.90;;;;;;5121093;27;20364;-43
2023/10/07 08:56:38;;;;;;;10.93;7.18;;;18.90;99.90;;;;;;5069663;27;20028;-43
2023/10/07 08:59:12;;;;;;;10.05;6.07;;;18.90;99.90;;;;;;5120278;27;20071;-43
2023/10/07 09:01:43;;;;;;;9.82;6.90;;;19.00;99.90;;;;;;5063635;27;20056;-44
2023/10/07 09:04:08;;;;;;;9.70;6.25;;;19.00;99.90;;;;;;5123013;27;20096;-44
2023/10/07 09:06:45;;;;;;;12.57;7.13;;;19.00;99.90;;;;;;5062794;28;20024;-43
2023/10/07 09:09:11;;;;;;;9.90;6.55;;;19.00;99.90;;;;;;5128026;27;20013;-44
2023/10/07 09:11:40;;;;;;;8.93;6.97;;;19.00;99.90;;;;;;5062091;28;20031;-44
2023/10/07 09:14:17;;;;;;;10.82;6.80;;;19.00;99.90;;;;;;5128484;27;20075;-44
2023/10/07 09:16:43;;;;;;;9.50;6.95;;;19.00;99.90;;;;;;5063092;28;20428;-44
2023/10/07 09:19:15;;;;;;;11.70;7.05;;;18.90;99.90;;;;;;5127409;27;20037;-43
2023/10/07 09:21:44;;;;;;;9.00;6.60;;;18.90;99.90;;;;;;5063084;27;20100;-43
2023/10/07 09:24:23;;;;;;;9.23;6.72;;;18.90;99.90;;;;;;5123495;27;20310;-43
2023/10/07 09:26:59;;;;;;;9.55;6.95;;;18.90;99.90;;;;;;5042036;28;20112;-44
2023/10/07 09:29:32;;;;;;;12.82;6.50;;;18.90;99.90;;;;;;5123657;27;20030;-44
2023/10/07 09:32:22;;;;;;;8.82;7.20;;;18.90;99.90;;;;;;5041515;28;20021;-44
2023/10/07 09:34:47;;;;;;;11.68;7.47;;;19.00;99.90;;;;;;5125326;27;20050;-44
2023/10/07 09:37:17;;;;;;;10.77;6.60;;;19.00;99.90;;;;;;5061854;28;20031;-44
2023/10/07 09:39:53;;;;;;;9.05;6.70;;;19.10;99.90;;;;;;5124677;27;20034;-45
2023/10/07 09:42:56;;;;;;;11.63;6.85;;;19.10;99.90;;;;;;5041780;28;20056;-45
2023/10/07 09:45:17;;;;;;;11.35;6.57;;;19.20;99.90;;;;;;5125135;27;20037;-44
2023/10/07 09:47:44;;;;;;;12.52;6.90;;;19.20;99.90;;;;;;5061341;27;20024;-44
2023/10/07 09:50:25;;;;;;;7.53;5.43;;;19.30;99.90;;;;;;5127015;27;20058;-44
2023/10/07 09:53:08;;;;;;;10.88;5.90;;;19.30;99.90;;;;;;5062003;27;20119;-44
2023/10/07 09:55:56;;;;;;;11.38;6.40;;;19.30;99.90;;;;;;5127663;27;20049;-44
2023/10/07 09:58:42;;;;;;;9.90;6.30;;;19.40;99.90;;;;;;5061342;28;20103;-44
2023/10/07 10:01:38;;;;;;;12.18;6.00;;;19.40;99.90;;;;;;5115776;27;20456;-45
2023/10/07 10:04:48;;;;;;;11.70;7.13;;;19.40;99.90;;;;;;5067895;27;20105;-43
2023/10/07 10:07:41;;;;;;;10.15;6.70;;;19.40;99.90;;;;;;5122782;27;20113;-42
2023/10/07 10:10:07;;;;;;;10.45;6.35;;;19.40;99.90;;;;;;5131841;27;20518;-43
2023/10/07 10:12:56;;;;;;;8.43;6.15;;;19.50;99.90;;;;;;5136682;27;20087;-43
2023/10/07 10:19:12;;;;;;;8.70;5.80;;;19.60;99.90;;;;;;5150268;27;20034;-44
2023/10/07 10:21:05;;;;;;;8.55;5.60;;;19.60;99.90;;;;;;5092730;27;20141;-44
2023/10/07 10:23:35;;;;;;;9.02;5.15;;;19.60;99.90;;;;;;5162723;27;20026;-43
2023/10/07 10:26:14;;;;;;;9.77;5.65;;;19.70;99.90;;;;;;5113716;27;20633;-44
2023/10/07 10:28:41;;;;;;;9.55;5.05;;;19.80;99.90;;;;;;5161066;27;20030;-43
2023/10/07 10:31:19;;;;;;;10.00;5.25;;;19.80;99.90;;;;;;5116713;27;20494;-43
2023/10/07 10:33:49;;;;;;;9.40;5.50;;;19.90;99.90;;;;;;5156989;27;20106;-43
2023/10/07 10:36:22;;;;;;;8.15;4.82;;;19.90;99.90;;;;;;5118251;27;20494;-44
2023/10/07 10:38:48;;;;;;;13.13;5.80;;;20.00;99.90;;;;;;5141006;27;20046;-42
2023/10/07 10:41:15;;;;;;;13.90;7.60;;;20.00;99.90;;;;;;5099647;27;20029;-43
2023/10/07 10:43:57;;;;;;;12.85;6.25;;;20.00;99.90;;;;;;5086669;27;20017;-43
2023/10/07 10:46:43;;;;;;;11.68;6.10;;;20.00;99.90;;;;;;5098313;27;20058;-43
2023/10/07 10:49:11;;;;;;;13.50;7.35;;;20.00;99.90;;;;;;5073474;27;20063;-43
2023/10/07 10:51:39;;;;;;;12.55;6.45;;;20.00;99.90;;;;;;5099836;27;20028;-44
2023/10/07 10:54:05;;;;;;;12.60;4.80;;;20.00;99.90;;;;;;5084375;27;20024;-43
2023/10/07 10:56:31;;;;;;;8.70;5.10;;;20.00;99.90;;;;;;5087995;27;20037;-43
2023/10/07 10:58:56;;;;;;;11.48;5.45;;;20.00;99.90;;;;;;5098301;27;20124;-43
2023/10/07 11:01:22;;;;;;;7.60;4.20;;;20.10;99.90;;;;;;5074449;27;20043;-43
2023/10/07 11:03:49;;;;;;;9.48;4.38;;;20.20;99.90;;;;;;5111109;27;20032;-43
2023/10/07 11:06:15;;;;;;;9.88;4.85;;;20.20;99.90;;;;;;5066995;27;20018;-43
2023/10/07 11:08:41;;;;;;;9.18;5.13;;;20.30;99.90;;;;;;5119182;27;20475;-43
2023/10/07 11:11:10;;;;;;;8.38;4.70;;;20.30;99.90;;;;;;5066330;27;20040;-43
2023/10/07 11:13:39;;;;;;;9.75;5.18;;;20.30;99.90;;;;;;5120895;27;20021;-44
2023/10/07 11:16:12;;;;;;;10.00;5.32;;;20.40;99.90;;;;;;5063883;27;20039;-44
2023/10/07 11:18:45;;;;;;;11.55;5.40;;;20.30;99.90;;;;;;5107037;27;20034;-43
2023/10/07 11:21:11;;;;;;;8.40;4.45;;;20.30;99.90;;;;;;5169579;27;20026;-44
2023/10/07 11:23:52;;;;;;;10.60;5.22;;;20.20;99.90;;;;;;5102988;27;20018;-43
2023/10/07 11:26:19;;;;;;;9.38;5.18;;;20.20;99.90;;;;;;5168382;27;20034;-44
2023/10/07 11:28:48;;;;;;;12.02;5.15;;;20.20;99.90;;;;;;5103044;27;20345;-44
2023/10/07 11:31:20;;;;;;;12.70;5.32;;;20.20;99.90;;;;;;5169668;27;20082;-43
2023/10/07 11:33:52;;;;;;;8.95;4.63;;;20.20;99.90;;;;;;5102454;27;20063;-44
2023/10/07 11:36:17;;;;;;;8.50;4.95;;;20.20;99.90;;;;;;5169832;27;20042;-43
2023/10/07 11:38:43;;;;;;;11.13;5.70;;;20.20;99.90;;;;;;5109656;27;20029;-44
2023/10/07 11:41:10;;;;;;;11.30;5.10;;;20.30;99.90;;;;;;5169587;27;20026;-43
2023/10/07 11:43:54;;;;;;;9.30;4.53;;;20.30;99.90;;;;;;5118529;27;20073;-43
2023/10/07 11:46:20;;;;;;;13.30;5.57;;;20.40;99.90;;;;;;5167238;27;20018;-44
2023/10/07 11:48:49;;;;;;;14.13;4.93;;;20.40;99.90;;;;;;5118737;27;20040;-43
2023/10/07 11:51:15;;;;;;;11.30;5.15;;;20.40;99.90;;;;;;5156457;27;20029;-43
2023/10/07 11:53:41;;;;;;;9.10;4.43;;;20.40;99.90;;;;;;5129225;27;20016;-43
2023/10/07 11:56:11;;;;;;;9.30;4.20;;;20.50;99.90;;;;;;5142872;27;20045;-43
2023/10/07 11:58:37;;;;;;;9.65;4.10;;;20.70;99.90;;;;;;5139879;27;20024;-44
2023/10/07 12:01:03;;;;;;;8.50;4.32;;;20.70;99.90;;;;;;5131567;27;20018;-44
2023/10/07 12:03:30;;;;;;;6.47;3.40;;;20.80;99.90;;;;;;5153902;27;20022;-44
2023/10/07 12:05:58;;;;;;;9.05;3.88;;;20.80;99.90;;;;;;5120263;27;20417;-44
2023/10/07 12:08:23;;;;;;;7.93;3.60;;;20.80;99.90;;;;;;5161417;27;20142;-43
2023/10/07 12:10:52;;;;;;;10.27;4.22;;;20.80;99.90;;;;;;5110108;27;20897;-44
2023/10/07 12:13:19;;;;;;;11.02;4.20;;;20.80;99.90;;;;;;5161299;27;20122;-43
2023/10/07 12:15:45;;;;;;;9.52;4.25;;;20.80;99.90;;;;;;5109018;27;20014;-45
2023/10/07 12:18:16;;;;;;;9.95;4.07;;;20.90;99.90;;;;;;5167998;27;20129;-43
2023/10/07 12:20:45;;;;;;;11.80;4.35;;;21.00;99.90;;;;;;5105669;27;20030;-42
2023/10/07 12:23:11;;;;;;;11.32;4.65;;;21.00;99.90;;;;;;5168948;27;20049;-43
2023/10/07 12:25:37;;;;;;;7.97;3.60;;;21.00;99.90;;;;;;5101490;27;20056;-43
2023/10/07 12:28:05;;;;;;;9.52;4.22;;;21.10;99.90;;;;;;5168139;27;20088;-45
2023/10/07 12:30:31;;;;;;;7.35;3.58;;;21.10;99.90;;;;;;5102261;27;20088;-44
2023/10/07 12:33:00;;;;;;;9.45;4.15;;;21.10;99.90;;;;;;5168190;27;20022;-44
2023/10/07 12:35:30;;;;;;;10.15;4.32;;;21.20;99.90;;;;;;5110501;27;20048;-44
2023/10/07 12:37:56;;;;;;;8.93;4.35;;;21.10;99.90;;;;;;5161480;27;20022;-42
2023/10/07 12:40:22;;;;;;;9.27;4.32;;;21.10;99.90;;;;;;5139627;27;20044;-43
2023/10/07 12:42:54;;;;;;;12.15;4.38;;;21.00;99.90;;;;;;5083076;27;20024;-44
2023/10/07 12:45:20;;;;;;;9.05;3.60;;;21.00;99.90;;;;;;5098886;27;20424;-43
2023/10/07 12:47:48;;;;;;;6.13;3.70;;;21.00;99.90;;;;;;5092341;27;20126;-43
2023/10/07 12:50:29;;;;;;;10.10;3.58;;;21.10;99.90;;;;;;5085727;27;20369;-44
2023/10/07 12:53:04;;;;;;;9.77;3.80;;;21.10;99.90;;;;;;5093094;27;20044;-44
2023/10/07 12:55:31;;;;;;;11.63;4.03;;;21.20;99.90;;;;;;5091028;27;20026;-44
2023/10/07 12:58:01;;;;;;;14.40;4.35;;;21.20;99.90;;;;;;5098229;27;20036;-42
2023/10/07 13:00:32;;;;;;;11.90;4.35;;;21.30;99.90;;;;;;5081451;27;20040;-44
2023/10/07 13:02:58;;;;;;;8.50;3.42;;;21.40;99.90;;;;;;5105086;27;20590;-44
2023/10/07 13:05:24;;;;;;;8.48;3.13;;;21.50;99.90;;;;;;5070740;27;20033;-43
2023/10/07 13:07:53;;;;;;;8.55;3.70;;;21.60;99.90;;;;;;5119683;27;20033;-43
2023/10/07 13:10:19;;;;;;;7.35;3.90;;;21.60;99.90;;;;;;5068510;27;20049;-43
2023/10/07 13:12:45;;;;;;;9.00;4.10;;;21.60;99.90;;;;;;5121550;27;20052;-43
2023/10/07 13:15:18;;;;;;;7.38;3.63;;;21.60;99.90;;;;;;5065378;27;20510;-43
2023/10/07 13:17:48;;;;;;;9.57;4.38;;;21.60;99.90;;;;;;5117374;27;20437;-43
2023/10/07 13:20:20;;;;;;;10.27;3.67;;;21.60;99.90;;;;;;5062921;27;20033;-44
2023/10/07 13:22:46;;;;;;;8.55;3.95;;;21.60;99.90;;;;;;5104419;27;20022;-43
2023/10/07 13:25:13;;;;;;;12.25;5.03;;;21.60;99.90;;;;;;5166444;27;20625;-42
2023/10/07 13:27:39;;;;;;;7.38;3.50;;;21.50;99.90;;;;;;5100693;27;20028;-43
2023/10/07 13:30:12;;;;;;;5.80;3.40;;;21.50;99.90;;;;;;5167304;27;20030;-43
2023/10/07 13:32:40;;;;;;;;;;;21.40;99.90;;;;;;5100962;27;20287;-43
2023/10/07 13:35:09;;;;;;;7.28;3.42;;;21.40;99.90;;;;;;5166506;27;19918;-44
2023/10/07 13:37:37;;;;;;;5.78;3.30;;;21.40;99.90;;;;;;5106601;27;20037;-44
2023/10/07 13:40:07;;;;;;;7.60;3.80;;;21.50;99.90;;;;;;5116658;27;20035;-44
2023/10/07 13:42:36;;;;;;;7.93;3.95;;;21.50;99.90;;;;;;5111652;27;20105;-43
2023/10/07 13:45:08;;;;;;;12.40;4.40;;;21.40;99.90;;;;;;5074924;27;20020;-44
2023/10/07 13:47:37;;;;;;;9.68;3.97;;;21.30;99.90;;;;;;5104902;27;20050;-43
2023/10/07 13:50:13;;;;;;;10.48;3.80;;;21.30;99.90;;;;;;5082160;27;20147;-45
2023/10/07 13:52:58;;;;;;;6.50;3.10;;;21.30;99.90;;;;;;5099841;27;20414;-43
2023/10/07 13:57:56;;;;;;;11.35;4.63;;;21.20;99.90;;;;;;5105587;27;20038;-43
2023/10/07 14:03:08;;;;;;;10.07;4.22;;;21.30;99.90;;;;;;5100604;27;20022;-43